createdAt,value
2023-02-13T00:01:02.664Z,102879.44
2023-02-13T00:03:30.970Z,102881.16
2023-02-13T00:06:00.235Z,102878.47
2023-02-13T00:08:28.022Z,102875.16
2023-02-13T00:10:56.042Z,102879.44
2023-02-13T00:13:24.038Z,102881.09
2023-02-13T00:16:03.724Z,102874.19
2023-02-13T00:18:35.239Z,102861.25
2023-02-13T00:21:07.135Z,102864.47
2023-02-13T00:23:36.226Z,102866.44
2023-02-13T00:26:07.463Z,102873.38
2023-02-13T00:28:35.537Z,102848.06
2023-02-13T00:31:06.584Z,102862.72
2023-02-13T00:33:34.873Z,102839.41
2023-02-13T00:36:10.139Z,102848.97
2023-02-13T00:38:39.367Z,102853.09
2023-02-13T00:41:07.278Z,102856.50
2023-02-13T00:43:36.534Z,102852.09
2023-02-13T00:46:04.731Z,102856.50
2023-02-13T00:48:34.530Z,102842.66
2023-02-13T00:51:02.845Z,102847.75
2023-02-13T00:53:33.672Z,102833.22
2023-02-13T00:56:01.569Z,102839.09
2023-02-13T00:58:29.708Z,102834.75
2023-02-13T01:00:58.768Z,102848.72
2023-02-13T01:03:27.648Z,102837.53
2023-02-13T01:05:57.426Z,102842.59
2023-02-13T01:08:28.301Z,102845.44
2023-02-13T01:10:58.367Z,102842.66
2023-02-13T01:13:27.141Z,102844.50
2023-02-13T01:15:55.094Z,102839.09
2023-02-13T01:18:23.034Z,102839.34
2023-02-13T01:20:59.059Z,102837.53
2023-02-13T01:23:27.218Z,102839.09
2023-02-13T01:25:55.026Z,102841.69
2023-02-13T01:28:24.293Z,102839.09
2023-02-13T01:30:56.475Z,102832.13
2023-02-13T01:33:25.947Z,102844.44
2023-02-13T01:35:54.047Z,102812.56
2023-02-13T01:38:22.167Z,102840.03
2023-02-13T01:40:51.771Z,102835.69
2023-02-13T01:43:23.344Z,102835.69
2023-02-13T01:45:56.149Z,102828.75
2023-02-13T01:48:26.431Z,102829.69
2023-02-13T01:50:58.742Z,102822.50
2023-02-13T01:53:31.091Z,102833.22
2023-02-13T01:56:04.002Z,102832.31
2023-02-13T01:58:36.884Z,102832.38
2023-02-13T02:01:07.888Z,102803.13
2023-02-13T02:03:39.579Z,102827.09
2023-02-13T02:06:15.687Z,102836.78
2023-02-13T02:08:44.079Z,102831.50
2023-02-13T02:11:26.986Z,102831.44
2023-02-13T02:13:55.431Z,102832.38
2023-02-13T02:16:34.144Z,102828.25
2023-02-13T02:19:11.858Z,102840.28
2023-02-13T02:22:03.589Z,102834.16
2023-02-13T02:24:58.656Z,102837.63
2023-02-13T02:28:00.494Z,102830.13
2023-02-13T02:30:48.815Z,102837.63
2023-02-13T02:33:30.888Z,102839.34
2023-02-13T02:36:15.917Z,102832.38
2023-02-13T02:38:59.764Z,102835.06
2023-02-13T02:41:43.219Z,102828.81
2023-02-13T02:44:33.641Z,102831.50
2023-02-13T02:47:41.560Z,102832.44
2023-02-13T02:50:35.999Z,102828.97
2023-02-13T02:53:18.612Z,102836.22
2023-02-13T02:55:53.767Z,102833.50
2023-02-13T02:58:42.662Z,102827.50
2023-02-13T03:01:32.793Z,102823.09
2023-02-13T03:04:19.641Z,102834.44
2023-02-13T03:06:52.820Z,102823.94
2023-02-13T03:09:42.515Z,102832.59
2023-02-13T03:12:28.815Z,102815.97
2023-02-13T03:14:56.711Z,102826.47
2023-02-13T03:17:42.468Z,102822.13
2023-02-13T03:20:42.522Z,102810.97
2023-02-13T03:23:17.939Z,102829.16
2023-02-13T03:26:07.580Z,102820.41
2023-02-13T03:28:58.982Z,102828.38
2023-02-13T03:31:35.088Z,102827.38
2023-02-13T03:34:06.739Z,102829.22
2023-02-13T03:37:08.821Z,102833.63
2023-02-13T03:39:47.681Z,102835.34
2023-02-13T03:42:22.997Z,102833.63
2023-02-13T03:45:10.392Z,102825.78
2023-02-13T03:47:39.601Z,102822.47
2023-02-13T03:50:09.982Z,102830.94
2023-02-13T03:52:45.539Z,102831.00
2023-02-13T03:55:35.684Z,102825.00
2023-02-13T03:58:26.971Z,102825.78
2023-02-13T04:01:03.149Z,102829.34
2023-02-13T04:03:37.157Z,102820.53
2023-02-13T04:06:08.412Z,102823.22
2023-02-13T04:08:36.710Z,102831.06
2023-02-13T04:11:15.843Z,102838.16
2023-02-13T04:13:49.090Z,102826.31
2023-02-13T04:16:21.381Z,102838.16
2023-02-13T04:18:51.026Z,102835.59
2023-02-13T04:21:18.896Z,102836.44
2023-02-13T04:23:46.661Z,102828.47
2023-02-13T04:26:19.399Z,102833.75
2023-02-13T04:28:47.352Z,102834.75
2023-02-13T04:31:15.769Z,102840.00
2023-02-13T04:33:43.553Z,102845.28
2023-02-13T04:36:11.387Z,102842.63
2023-02-13T04:38:39.163Z,102841.84
2023-02-13T04:41:06.907Z,102837.44
2023-02-13T04:43:36.038Z,102840.06
2023-02-13T04:46:04.001Z,102830.38
2023-02-13T04:48:31.908Z,102840.16
2023-02-13T04:50:59.847Z,102835.72
2023-02-13T04:53:27.831Z,102836.00
2023-02-13T04:55:55.493Z,102830.66
2023-02-13T04:58:23.273Z,102833.28
2023-02-13T05:00:52.424Z,102833.28
2023-02-13T05:03:20.385Z,102826.44
2023-02-13T05:05:49.312Z,102829.06
2023-02-13T05:08:17.400Z,102826.50
2023-02-13T05:10:45.194Z,102833.66
2023-02-13T05:13:13.312Z,102830.91
2023-02-13T05:15:41.164Z,102832.03
2023-02-13T05:18:10.423Z,102825.16
2023-02-13T05:20:38.164Z,102828.66
2023-02-13T05:23:23.030Z,102835.66
2023-02-13T05:25:51.567Z,102826.22
2023-02-13T05:28:36.674Z,102827.97
2023-02-13T05:31:04.636Z,102833.31
2023-02-13T05:33:33.808Z,102833.53
2023-02-13T05:36:01.547Z,102824.88
2023-02-13T05:38:29.345Z,102830.09
2023-02-13T05:41:00.103Z,102831.94
2023-02-13T05:43:28.540Z,102832.09
2023-02-13T05:46:11.463Z,102839.94
2023-02-13T05:48:40.625Z,102836.50
2023-02-13T05:51:09.461Z,102831.34
2023-02-13T05:53:37.279Z,102831.50
2023-02-13T05:56:06.760Z,102837.81
2023-02-13T05:58:43.213Z,102827.88
2023-02-13T06:01:11.229Z,102835.34
2023-02-13T06:03:41.189Z,102839.88
2023-02-13T06:06:09.179Z,102842.50
2023-02-13T06:08:37.238Z,102844.41
2023-02-13T06:11:05.674Z,102826.28
2023-02-13T06:13:33.385Z,102845.44
2023-02-13T06:16:01.163Z,102835.03
2023-02-13T06:18:28.875Z,102826.41
2023-02-13T06:20:59.723Z,102835.19
2023-02-13T06:23:27.705Z,102827.41
2023-02-13T06:25:55.447Z,102840.72
2023-02-13T06:28:23.232Z,102833.69
2023-02-13T06:30:51.148Z,102839.81
2023-02-13T06:33:18.926Z,102837.28
2023-02-13T06:35:46.701Z,102839.00
2023-02-13T06:38:18.958Z,102828.47
2023-02-13T06:40:47.062Z,102843.53
2023-02-13T06:43:15.629Z,102823.84
2023-02-13T06:45:43.465Z,102836.00
2023-02-13T06:48:11.232Z,102839.69
2023-02-13T06:50:39.040Z,102836.03
2023-02-13T06:53:06.726Z,102837.06
2023-02-13T06:55:39.222Z,102843.19
2023-02-13T06:58:08.349Z,102841.25
2023-02-13T07:00:37.492Z,102836.84
2023-02-13T07:03:07.119Z,102830.72
2023-02-13T07:05:34.946Z,102827.34
2023-02-13T07:08:02.664Z,102836.97
2023-02-13T07:10:30.458Z,102842.13
2023-02-13T07:13:05.764Z,102836.84
2023-02-13T07:15:34.460Z,102838.69
2023-02-13T07:18:02.715Z,102844.84
2023-02-13T07:20:31.001Z,102848.34
2023-02-13T07:22:59.611Z,102840.50
2023-02-13T07:25:28.420Z,102844.97
2023-02-13T07:27:56.428Z,102843.31
2023-02-13T07:30:25.562Z,102845.97
2023-02-13T07:32:53.301Z,102846.03
2023-02-13T07:35:21.028Z,102844.25
2023-02-13T07:37:48.685Z,102844.97
2023-02-13T07:40:16.582Z,102849.31
2023-02-13T07:42:44.352Z,102838.78
2023-02-13T07:45:12.072Z,102845.78
2023-02-13T07:47:41.231Z,102846.69
2023-02-13T07:50:09.873Z,102849.41
2023-02-13T07:52:38.135Z,102837.53
2023-02-13T07:55:06.269Z,102826.38
2023-02-13T07:57:49.173Z,102849.53
2023-02-13T08:00:18.139Z,102848.50
2023-02-13T08:02:47.445Z,102842.34
2023-02-13T08:05:15.608Z,102835.06
2023-02-13T08:07:43.389Z,102845.88
2023-02-13T08:10:32.016Z,102848.34
2023-02-13T08:13:00.051Z,102852.63
2023-02-13T08:15:28.088Z,102856.94
2023-02-13T08:17:57.231Z,102856.03
2023-02-13T08:20:25.001Z,102848.94
2023-02-13T08:22:53.146Z,102859.38
2023-02-13T08:25:21.367Z,102851.47
2023-02-13T08:27:49.119Z,102847.81
2023-02-13T08:30:17.132Z,102849.63
2023-02-13T08:32:53.846Z,102856.56
2023-02-13T08:35:26.738Z,102857.31
2023-02-13T08:37:54.556Z,102862.69
2023-02-13T08:40:26.010Z,102861.63
2023-02-13T08:42:54.088Z,102861.53
2023-02-13T08:45:22.337Z,102858.03
2023-02-13T08:47:52.727Z,102863.94
2023-02-13T08:50:23.081Z,102866.44
2023-02-13T08:52:50.736Z,102841.28
2023-02-13T08:55:18.713Z,102860.38
2023-02-13T08:57:46.468Z,102855.91
2023-02-13T09:00:15.619Z,102854.75
2023-02-13T09:02:43.325Z,102867.00
2023-02-13T09:05:11.110Z,102854.56
2023-02-13T09:07:40.196Z,102853.59
2023-02-13T09:10:08.999Z,102855.25
2023-02-13T09:12:36.715Z,102855.97
2023-02-13T09:15:04.938Z,102837.69
2023-02-13T09:17:32.710Z,102830.75
2023-02-13T09:20:00.423Z,102848.66
2023-02-13T09:22:28.182Z,102849.44
2023-02-13T09:24:59.172Z,102848.47
2023-02-13T09:27:26.891Z,102840.41
2023-02-13T09:29:54.580Z,102849.84
2023-02-13T09:32:22.324Z,102848.75
2023-02-13T09:34:50.035Z,102845.06
2023-02-13T09:37:17.811Z,102848.38
2023-02-13T09:39:45.680Z,102849.09
2023-02-13T09:42:24.205Z,102847.97
2023-02-13T09:44:54.276Z,102847.84
2023-02-13T09:47:29.448Z,102846.63
2023-02-13T09:50:03.646Z,102849.66
2023-02-13T09:52:38.041Z,102850.03
2023-02-13T09:55:19.534Z,102848.88
2023-02-13T09:57:58.459Z,102863.75
2023-02-13T10:00:34.390Z,102861.09
2023-02-13T10:03:27.043Z,102856.72
2023-02-13T10:06:04.195Z,102853.97
2023-02-13T10:08:45.550Z,102858.72
2023-02-13T10:11:35.413Z,102847.69
2023-02-13T10:14:15.462Z,102846.25
2023-02-13T10:16:46.537Z,102854.06
2023-02-13T10:19:23.021Z,102855.25
2023-02-13T10:21:55.541Z,102854.88
2023-02-13T10:24:32.517Z,102861.97
2023-02-13T10:27:05.720Z,102865.09
2023-02-13T10:29:57.925Z,102862.44
2023-02-13T10:32:36.027Z,102859.38
2023-02-13T10:35:15.701Z,102860.94
2023-02-13T10:37:44.094Z,102862.06
2023-02-13T10:40:12.933Z,102864.34
2023-02-13T10:42:45.791Z,102869.03
2023-02-13T10:45:48.673Z,102863.00
2023-02-13T10:48:30.247Z,102871.78
2023-02-13T10:51:07.406Z,102863.88
2023-02-13T10:53:48.048Z,102865.72
2023-02-13T10:56:27.929Z,102855.34
2023-02-13T10:59:10.306Z,102860.38
2023-02-13T11:01:48.662Z,102861.91
2023-02-13T11:04:20.445Z,102851.72
2023-02-13T11:06:55.932Z,102853.94
2023-02-13T11:09:24.551Z,102845.94
2023-02-13T11:11:52.577Z,102845.53
2023-02-13T11:14:22.233Z,102833.94
2023-02-13T11:16:55.805Z,102834.09
2023-02-13T11:19:28.535Z,102822.38
2023-02-13T11:22:01.369Z,102826.50
2023-02-13T11:24:32.220Z,102832.19
2023-02-13T11:27:04.707Z,102829.81
2023-02-13T11:29:35.207Z,102823.34
2023-02-13T11:32:22.312Z,102820.69
2023-02-13T11:34:51.817Z,102818.34
2023-02-13T11:37:24.608Z,102814.31
2023-02-13T11:39:54.414Z,102793.50
2023-02-13T11:42:28.125Z,102810.03
2023-02-13T11:44:59.449Z,102802.78
2023-02-13T11:47:45.801Z,102801.09
2023-02-13T11:50:28.208Z,102789.59
2023-02-13T11:52:59.396Z,102788.69
2023-02-13T11:55:33.576Z,102785.88
2023-02-13T11:58:03.816Z,102783.94
2023-02-13T12:00:37.613Z,102777.19
2023-02-13T12:03:26.730Z,102779.31
2023-02-13T12:06:03.544Z,102787.91
2023-02-13T12:08:32.460Z,102777.59
2023-02-13T12:11:02.636Z,102762.03
2023-02-13T12:13:33.852Z,102776.81
2023-02-13T12:16:05.250Z,102775.53
2023-02-13T12:18:39.566Z,102770.44
2023-02-13T12:21:19.543Z,102750.00
2023-02-13T12:23:56.882Z,102744.09
2023-02-13T12:26:32.915Z,102763.38
2023-02-13T12:29:33.639Z,102748.47
2023-02-13T12:32:18.527Z,102748.09
2023-02-13T12:35:00.650Z,102757.66
2023-02-13T12:37:46.192Z,102756.91
2023-02-13T12:40:31.023Z,102751.56
2023-02-13T12:43:21.711Z,102744.44
2023-02-13T12:45:58.512Z,102746.38
2023-02-13T12:48:37.904Z,102742.00
2023-02-13T12:51:26.787Z,102749.88
2023-02-13T12:54:18.474Z,102749.44
2023-02-13T12:56:57.298Z,102734.63
2023-02-13T12:59:38.800Z,102693.34
2023-02-13T13:02:29.124Z,102725.06
2023-02-13T13:05:13.639Z,102719.66
2023-02-13T13:07:59.871Z,102730.06
2023-02-13T13:10:39.392Z,102725.03
2023-02-13T13:13:18.714Z,102704.06
2023-02-13T13:15:53.602Z,102717.69
2023-02-13T13:18:31.779Z,102707.06
2023-02-13T13:21:05.496Z,102715.44
2023-02-13T13:23:41.156Z,102706.72
2023-02-13T13:26:21.198Z,102703.94
2023-02-13T13:28:52.861Z,102706.59
2023-02-13T13:31:24.303Z,102701.81
2023-02-13T13:33:52.142Z,102705.66
2023-02-13T13:36:28.891Z,102696.31
2023-02-13T13:39:07.282Z,102698.00
2023-02-13T13:41:47.453Z,102696.31
2023-02-13T13:44:35.675Z,102693.22
2023-02-13T13:47:13.294Z,102693.34
2023-02-13T13:49:52.083Z,102689.94
2023-02-13T13:52:26.073Z,102690.81
2023-02-13T13:54:56.593Z,102698.69
2023-02-13T13:57:25.159Z,102688.25
2023-02-13T14:00:27.842Z,102676.44
2023-02-13T14:03:23.958Z,102675.06
2023-02-13T14:06:04.892Z,102670.78
2023-02-13T14:09:29.281Z,102670.06
2023-02-13T14:12:05.536Z,102669.97
2023-02-13T14:14:53.098Z,102665.34
2023-02-13T14:17:52.892Z,102661.84
2023-02-13T14:20:36.758Z,102658.53
2023-02-13T14:23:16.211Z,102660.28
2023-02-13T14:25:47.723Z,102658.16
2023-02-13T14:28:30.001Z,102669.03
2023-02-13T14:31:09.097Z,102654.13
2023-02-13T14:33:43.053Z,102659.06
2023-02-13T14:36:30.104Z,102657.13
2023-02-13T14:39:01.352Z,102670.34
2023-02-13T14:41:57.435Z,102659.47
2023-02-13T14:44:32.370Z,102664.28
2023-02-13T14:47:02.969Z,102652.91
2023-02-13T14:49:37.393Z,102657.59
2023-02-13T14:52:07.837Z,102639.41
2023-02-13T14:54:44.960Z,102640.16
2023-02-13T14:57:22.590Z,102658.03
2023-02-13T14:59:56.422Z,102653.44
2023-02-13T15:02:33.242Z,102643.31
2023-02-13T15:05:05.270Z,102646.28
2023-02-13T15:07:38.164Z,102649.81
2023-02-13T15:10:29.522Z,102610.13
2023-02-13T15:12:58.470Z,102643.31
2023-02-13T15:15:29.315Z,102635.75
2023-02-13T15:18:02.873Z,102617.00
2023-02-13T15:20:34.992Z,102628.13
2023-02-13T15:23:06.638Z,102640.19
2023-02-13T15:25:39.398Z,102628.88
2023-02-13T15:28:10.482Z,102636.06
2023-02-13T15:30:39.739Z,102629.81
2023-02-13T15:33:22.562Z,102622.56
2023-02-13T15:35:56.766Z,102624.16
2023-02-13T15:38:29.919Z,102618.91
2023-02-13T15:41:04.437Z,102627.28
2023-02-13T15:43:35.863Z,102623.50
2023-02-13T15:46:07.786Z,102617.34
2023-02-13T15:48:36.670Z,102618.97
2023-02-13T15:51:04.927Z,102621.75
2023-02-13T15:53:32.609Z,102623.94
2023-02-13T15:56:02.812Z,102610.88
2023-02-13T15:58:35.969Z,102613.38
2023-02-13T16:01:08.409Z,102609.63
2023-02-13T16:03:37.290Z,102605.78
2023-02-13T16:06:08.330Z,102610.88
2023-02-13T16:08:38.583Z,102610.50
2023-02-13T16:11:31.664Z,102611.75
2023-02-13T16:14:05.204Z,102609.94
2023-02-13T16:16:37.960Z,102616.81
2023-02-13T16:19:06.267Z,102615.56
2023-02-13T16:21:35.897Z,102619.22
2023-02-13T16:24:08.080Z,102618.25
2023-02-13T16:26:39.131Z,102617.38
2023-02-13T16:29:10.812Z,102621.59
2023-02-13T16:31:41.450Z,102618.59
2023-02-13T16:34:23.892Z,102620.25
2023-02-13T16:36:51.686Z,102611.22
2023-02-13T16:39:23.611Z,102612.94
2023-02-13T16:41:52.995Z,102607.81
2023-02-13T16:44:29.679Z,102614.13
2023-02-13T16:47:01.522Z,102606.19
2023-02-13T16:49:31.685Z,102612.25
2023-02-13T16:52:12.260Z,102612.44
2023-02-13T16:54:53.563Z,102614.66
2023-02-13T16:57:26.604Z,102624.69
2023-02-13T16:59:59.166Z,102624.31
2023-02-13T17:02:30.149Z,102627.38
2023-02-13T17:05:03.226Z,102635.59
2023-02-13T17:07:35.112Z,102637.84
2023-02-13T17:10:05.165Z,102633.28
2023-02-13T17:12:37.576Z,102640.50
2023-02-13T17:15:12.299Z,102642.38
2023-02-13T17:17:41.670Z,102639.44
2023-02-13T17:20:10.644Z,102641.50
2023-02-13T17:22:41.044Z,102647.31
2023-02-13T17:25:16.737Z,102650.19
2023-02-13T17:27:44.546Z,102655.81
2023-02-13T17:30:14.854Z,102647.47
2023-02-13T17:32:46.370Z,102654.56
2023-02-13T17:35:15.801Z,102652.09
2023-02-13T17:37:45.257Z,102654.81
2023-02-13T17:40:17.251Z,102656.91
2023-02-13T17:42:46.426Z,102656.81
2023-02-13T17:45:16.275Z,102643.09
2023-02-13T17:47:45.814Z,102655.59
2023-02-13T17:50:14.828Z,102649.16
2023-02-13T17:52:42.920Z,102643.69
2023-02-13T17:55:17.895Z,102648.38
2023-02-13T17:57:45.872Z,102649.47
2023-02-13T18:00:14.907Z,102626.47
2023-02-13T18:02:43.491Z,102655.44
2023-02-13T18:05:12.624Z,102661.03
2023-02-13T18:07:41.490Z,102661.88
2023-02-13T18:10:13.780Z,102657.53
2023-02-13T18:12:43.578Z,102636.91
2023-02-13T18:15:12.477Z,102655.44
2023-02-13T18:17:40.700Z,102653.97
2023-02-13T18:20:10.707Z,102657.69
2023-02-13T18:22:39.833Z,102658.00
2023-02-13T18:25:08.623Z,102660.84
2023-02-13T18:27:36.569Z,102650.84
2023-02-13T18:30:05.163Z,102651.69
2023-02-13T18:32:32.908Z,102660.75
2023-02-13T18:35:07.186Z,102641.03
2023-02-13T18:37:35.250Z,102654.84
2023-02-13T18:40:08.489Z,102659.97
2023-02-13T18:42:40.157Z,102658.41
2023-02-13T18:45:08.637Z,102660.63
2023-02-13T18:47:36.443Z,102658.69
2023-02-13T18:50:04.369Z,102658.97
2023-02-13T18:52:32.197Z,102657.47
2023-02-13T18:55:00.091Z,102660.44
2023-02-13T18:57:29.238Z,102657.47
2023-02-13T18:59:57.007Z,102661.97
2023-02-13T19:02:24.810Z,102660.53
2023-02-13T19:04:52.662Z,102665.88
2023-02-13T19:07:20.557Z,102636.84
2023-02-13T19:10:02.978Z,102641.69
2023-02-13T19:12:32.173Z,102660.19
2023-02-13T19:15:00.133Z,102650.75
2023-02-13T19:17:27.941Z,102660.13
2023-02-13T19:19:55.804Z,102658.13
2023-02-13T19:22:23.556Z,102659.97
2023-02-13T19:24:51.407Z,102663.41
2023-02-13T19:27:19.196Z,102663.53
2023-02-13T19:29:49.205Z,102664.66
2023-02-13T19:32:17.079Z,102669.06
2023-02-13T19:34:44.748Z,102674.25
2023-02-13T19:37:12.573Z,102671.53
2023-02-13T19:39:40.591Z,102672.38
2023-02-13T19:42:08.345Z,102675.94
2023-02-13T19:44:36.096Z,102673.16
2023-02-13T19:47:05.228Z,102675.81
2023-02-13T19:49:32.990Z,102678.69
2023-02-13T19:52:00.661Z,102681.41
2023-02-13T19:54:28.491Z,102679.69
2023-02-13T19:57:00.262Z,102670.84
2023-02-13T19:59:28.064Z,102659.94
2023-02-13T20:01:55.881Z,102664.44
2023-02-13T20:04:25.309Z,102663.75
2023-02-13T20:06:58.104Z,102666.44
2023-02-13T20:09:26.118Z,102663.81
2023-02-13T20:11:53.876Z,102676.69
2023-02-13T20:14:21.873Z,102669.88
2023-02-13T20:16:49.602Z,102669.22
2023-02-13T20:19:17.329Z,102675.69
2023-02-13T20:21:46.461Z,102679.19
2023-02-13T20:24:17.166Z,102674.09
2023-02-13T20:26:44.988Z,102680.47
2023-02-13T20:29:12.947Z,102673.00
2023-02-13T20:31:41.544Z,102680.38
2023-02-13T20:34:09.837Z,102680.53
2023-02-13T20:36:37.580Z,102677.09
2023-02-13T20:39:08.504Z,102675.13
2023-02-13T20:41:38.086Z,102671.81
2023-02-13T20:44:07.877Z,102679.38
2023-02-13T20:46:37.307Z,102682.00
2023-02-13T20:49:05.149Z,102671.75
2023-02-13T20:51:33.112Z,102684.66
2023-02-13T20:54:01.025Z,102674.78
2023-02-13T20:56:30.276Z,102680.66
2023-02-13T20:58:59.595Z,102682.50
2023-02-13T21:01:29.093Z,102675.66
2023-02-13T21:03:58.074Z,102680.19
2023-02-13T21:06:27.851Z,102664.81
2023-02-13T21:08:56.018Z,102663.88
2023-02-13T21:11:24.337Z,102674.91
2023-02-13T21:13:54.635Z,102676.63
2023-02-13T21:16:25.080Z,102650.28
2023-02-13T21:18:54.502Z,102681.22
2023-02-13T21:21:23.174Z,102677.78
2023-02-13T21:23:55.481Z,102674.66
2023-02-13T21:26:24.262Z,102667.09
2023-02-13T21:28:53.954Z,102666.38
2023-02-13T21:31:27.822Z,102678.94
2023-02-13T21:34:03.065Z,102671.22
2023-02-13T21:36:37.178Z,102675.84
2023-02-13T21:39:05.929Z,102664.16
2023-02-13T21:41:33.856Z,102675.09
2023-02-13T21:44:05.492Z,102631.56
2023-02-13T21:46:34.140Z,102665.78
2023-02-13T21:49:03.658Z,102648.22
2023-02-13T21:51:33.420Z,102672.22
2023-02-13T21:54:01.356Z,102666.22
2023-02-13T21:56:31.005Z,102648.69
2023-02-13T21:59:03.581Z,102658.19
2023-02-13T22:01:45.161Z,102665.06
2023-02-13T22:04:15.165Z,102652.56
2023-02-13T22:06:43.585Z,102653.91
2023-02-13T22:09:13.031Z,102660.75
2023-02-13T22:11:41.886Z,102648.75
2023-02-13T22:14:21.708Z,102655.56
2023-02-13T22:16:52.639Z,102650.72
2023-02-13T22:19:21.356Z,102626.09
2023-02-13T22:21:49.416Z,102644.59
2023-02-13T22:24:17.299Z,102648.06
2023-02-13T22:26:46.244Z,102613.78
2023-02-13T22:29:18.624Z,102654.19
2023-02-13T22:31:46.644Z,102648.41
2023-02-13T22:34:15.175Z,102647.78
2023-02-13T22:36:43.559Z,102651.38
2023-02-13T22:39:12.851Z,102649.38
2023-02-13T22:41:41.040Z,102648.50
2023-02-13T22:44:09.045Z,102666.94
2023-02-13T22:46:38.697Z,102656.03
2023-02-13T22:49:06.488Z,102651.13
2023-02-13T22:51:37.097Z,102655.34
2023-02-13T22:54:07.094Z,102661.66
2023-02-13T22:56:35.127Z,102655.81
2023-02-13T22:59:03.670Z,102652.50
2023-02-13T23:01:31.616Z,102655.94
2023-02-13T23:04:01.419Z,102656.00
2023-02-13T23:06:31.484Z,102651.91
2023-02-13T23:09:04.346Z,102632.41
2023-02-13T23:11:49.665Z,102645.19
2023-02-13T23:14:19.758Z,102654.75
2023-02-13T23:17:07.291Z,102651.44
2023-02-13T23:19:41.828Z,102650.75
2023-02-13T23:22:12.326Z,102634.09
2023-02-13T23:24:40.752Z,102650.34
2023-02-13T23:27:08.821Z,102652.13
2023-02-13T23:29:36.851Z,102660.69
2023-02-13T23:32:04.736Z,102643.69
2023-02-13T23:34:32.681Z,102641.13
2023-02-13T23:37:04.688Z,102645.31
2023-02-13T23:39:32.379Z,102660.25
2023-02-13T23:42:00.116Z,102650.00
2023-02-13T23:44:28.210Z,102640.09
2023-02-13T23:46:58.015Z,102663.03
2023-02-13T23:49:26.002Z,102643.41
2023-02-13T23:51:53.801Z,102654.78
2023-02-13T23:54:24.994Z,102662.47
2023-02-13T23:56:57.115Z,102648.06
2023-02-13T23:59:26.859Z,102645.53
